Time;durP1;ratioP1;P1;durP2;ratioP2;P2;SDS_P1;SDS_P2;PMS_P1;PMS_P2;Temp;Humidity;BMP_temperature;BMP_pressure;BME280_temperature;BME280_humidity;BME280_pressure;Samples;Min_cycle;Max_cycle;Signal;HPM_P1;HPM_P2
2021/10/24 00:02:25;;;;;;;19.67;13.43;;;;;;;;;;5053522;28;20216;-72
2021/10/24 00:04:51;;;;;;;16.30;12.80;;;;;;;;;;5055634;28;20239;-72
2021/10/24 00:07:18;;;;;;;21.63;14.03;;;;;;;;;;5056038;28;20219;-72
2021/10/24 00:09:44;;;;;;;20.10;13.80;;;;;;;;;;5054363;28;20713;-72
2021/10/24 00:12:11;;;;;;;19.40;13.77;;;;;;;;;;5055724;28;20246;-72
2021/10/24 00:14:38;;;;;;;19.57;14.07;;;;;;;;;;5054800;28;20257;-72
2021/10/24 00:17:05;;;;;;;17.17;12.97;;;;;;;;;;5056599;28;20661;-72
2021/10/24 00:19:32;;;;;;;18.80;13.67;;;;;;;;;;5054032;28;20227;-72
2021/10/24 00:21:58;;;;;;;18.50;13.90;;;;;;;;;;5055802;28;20210;-72
2021/10/24 00:24:24;;;;;;;18.13;13.03;;;;;;;;;;5050866;28;20218;-72
2021/10/24 00:26:51;;;;;;;18.63;13.80;;;;;;;;;;5054643;28;20196;-72
2021/10/24 00:29:17;;;;;;;16.17;13.37;;;;;;;;;;5055189;28;20357;-72
2021/10/24 00:31:45;;;;;;;16.03;13.13;;;;;;;;;;5053926;28;20226;-72
2021/10/24 00:34:12;;;;;;;17.13;13.73;;;;;;;;;;5052565;28;20272;-72
2021/10/24 00:36:38;;;;;;;19.97;14.77;;;;;;;;;;5054528;28;20212;-72
2021/10/24 00:39:05;;;;;;;16.00;14.30;;;;;;;;;;5055736;28;20610;-72
2021/10/24 00:41:32;;;;;;;22.17;14.93;;;;;;;;;;5053892;28;20207;-72
2021/10/24 00:43:59;;;;;;;21.57;15.07;;;;;;;;;;5053556;28;20220;-72
2021/10/24 00:46:25;;;;;;;17.27;14.07;;;;;;;;;;5054873;28;20211;-72
2021/10/24 00:48:53;;;;;;;19.40;13.90;;;;;;;;;;5052553;28;20701;-72
2021/10/24 00:51:20;;;;;;;18.67;14.83;;;;;;;;;;5054084;28;20233;-72
2021/10/24 00:53:46;;;;;;;17.57;13.50;;;;;;;;;;5055130;28;20236;-72
2021/10/24 00:56:13;;;;;;;18.37;14.93;;;;;;;;;;5054190;28;20242;-72
2021/10/24 00:58:41;;;;;;;21.93;15.17;;;;;;;;;;5051927;28;20717;-72
2021/10/24 01:01:07;;;;;;;18.93;13.53;;;;;;;;;;5054993;28;20211;-72
2021/10/24 01:03:34;;;;;;;21.53;14.57;;;;;;;;;;5055159;28;20288;-72
2021/10/24 01:06:02;;;;;;;19.37;14.50;;;;;;;;;;5052866;28;20219;-72
2021/10/24 01:08:29;;;;;;;20.07;14.13;;;;;;;;;;5053286;28;20253;-72
2021/10/24 01:10:56;;;;;;;20.10;14.27;;;;;;;;;;5054149;28;20328;-72
2021/10/24 01:13:22;;;;;;;22.90;14.47;;;;;;;;;;5055325;28;20213;-72
2021/10/24 01:15:48;;;;;;;19.97;13.43;;;;;;;;;;5053772;28;20246;-72
2021/10/24 01:18:15;;;;;;;18.57;12.60;;;;;;;;;;5055479;28;20679;-72
2021/10/24 01:20:41;;;;;;;17.13;13.63;;;;;;;;;;5053673;28;20280;-71
2021/10/24 01:23:10;;;;;;;19.00;13.53;;;;;;;;;;5054435;28;20232;-72
2021/10/24 01:25:36;;;;;;;18.10;12.10;;;;;;;;;;5057271;28;20298;-72
2021/10/24 01:28:03;;;;;;;19.83;12.30;;;;;;;;;;5057938;28;20214;-72
2021/10/24 01:30:29;;;;;;;16.90;12.27;;;;;;;;;;5055603;28;20236;-72
2021/10/24 01:32:55;;;;;;;19.13;11.70;;;;;;;;;;5055347;28;20277;-72
2021/10/24 01:35:22;;;;;;;13.60;11.50;;;;;;;;;;5057352;28;20247;-72
2021/10/24 01:37:48;;;;;;;15.97;11.90;;;;;;;;;;5056929;28;20264;-72
2021/10/24 01:40:19;;;;;;;17.57;11.10;;;;;;;;;;5055071;28;20712;-72
2021/10/24 01:42:51;;;;;;;15.03;11.00;;;;;;;;;;5055871;28;20210;-72
2021/10/24 01:45:19;;;;;;;15.53;10.00;;;;;;;;;;5058310;28;20691;-72
2021/10/24 01:47:45;;;;;;;13.80;10.17;;;;;;;;;;5056854;28;20216;-72
2021/10/24 01:50:12;;;;;;;15.03;10.77;;;;;;;;;;5056123;28;20635;-72
2021/10/24 01:52:43;;;;;;;15.67;10.03;;;;;;;;;;5054548;28;20210;-72
2021/10/24 01:55:11;;;;;;;11.47;9.27;;;;;;;;;;5058008;28;20284;-72
2021/10/24 01:57:39;;;;;;;15.50;9.43;;;;;;;;;;5056730;28;20222;-72
2021/10/24 02:00:06;;;;;;;15.40;10.07;;;;;;;;;;5057124;28;20226;-72
2021/10/24 02:02:33;;;;;;;14.00;9.50;;;;;;;;;;5055706;28;20287;-72
2021/10/24 02:05:00;;;;;;;11.80;9.00;;;;;;;;;;5055961;28;20343;-72
2021/10/24 02:07:27;;;;;;;11.47;9.13;;;;;;;;;;5055295;28;20219;-72
2021/10/24 02:09:53;;;;;;;13.67;10.17;;;;;;;;;;5055625;28;20745;-72
2021/10/24 02:12:21;;;;;;;12.10;9.80;;;;;;;;;;5056970;28;20239;-72
2021/10/24 02:14:48;;;;;;;12.20;9.60;;;;;;;;;;5055386;28;20713;-72
2021/10/24 02:17:15;;;;;;;13.63;10.00;;;;;;;;;;5054883;28;20724;-72
2021/10/24 02:19:41;;;;;;;15.77;9.00;;;;;;;;;;5056387;28;20631;-71
2021/10/24 02:22:08;;;;;;;13.97;10.00;;;;;;;;;;5055780;28;20222;-72
2021/10/24 02:24:34;;;;;;;11.77;9.00;;;;;;;;;;5056686;28;20237;-73
2021/10/24 02:27:01;;;;;;;15.03;10.13;;;;;;;;;;5056940;28;20211;-72
2021/10/24 02:29:27;;;;;;;12.03;9.27;;;;;;;;;;5054956;28;20219;-71
2021/10/24 02:31:55;;;;;;;11.23;9.27;;;;;;;;;;5055335;28;20241;-72
2021/10/24 02:34:21;;;;;;;15.17;9.60;;;;;;;;;;5055334;28;20260;-71
2021/10/24 02:36:48;;;;;;;12.67;9.90;;;;;;;;;;5055352;28;20211;-72
2021/10/24 02:39:15;;;;;;;12.53;9.53;;;;;;;;;;5056515;28;20252;-72
2021/10/24 02:41:41;;;;;;;12.43;10.00;;;;;;;;;;5057716;28;20206;-72
2021/10/24 02:44:08;;;;;;;12.93;10.30;;;;;;;;;;5056589;28;20275;-71
2021/10/24 02:46:34;;;;;;;14.50;9.70;;;;;;;;;;5055574;28;20283;-72
2021/10/24 02:49:02;;;;;;;12.97;9.93;;;;;;;;;;5053433;28;20281;-74
2021/10/24 02:51:29;;;;;;;12.50;10.13;;;;;;;;;;5055592;28;20223;-73
2021/10/24 02:53:55;;;;;;;13.30;9.70;;;;;;;;;;5056600;28;20278;-74
2021/10/24 02:56:22;;;;;;;13.40;9.93;;;;;;;;;;5057604;28;20220;-73
2021/10/24 02:58:49;;;;;;;13.83;10.90;;;;;;;;;;5055913;28;20601;-74
2021/10/24 03:01:15;;;;;;;13.10;10.67;;;;;;;;;;5055206;28;20261;-73
2021/10/24 03:03:42;;;;;;;12.73;10.90;;;;;;;;;;5055451;28;20224;-73
2021/10/24 03:06:09;;;;;;;17.17;11.17;;;;;;;;;;5055834;28;20227;-73
2021/10/24 03:08:36;;;;;;;17.53;12.03;;;;;;;;;;5056187;28;20230;-73
2021/10/24 03:11:02;;;;;;;16.70;10.17;;;;;;;;;;5055272;28;20281;-73
2021/10/24 03:13:29;;;;;;;14.43;10.90;;;;;;;;;;5056974;28;20833;-73
2021/10/24 03:15:55;;;;;;;15.47;10.77;;;;;;;;;;5056515;28;20699;-73
2021/10/24 03:18:22;;;;;;;13.60;11.50;;;;;;;;;;5054305;28;20221;-73
2021/10/24 03:20:49;;;;;;;12.10;10.57;;;;;;;;;;5055889;28;20218;-73
2021/10/24 03:23:17;;;;;;;15.30;11.70;;;;;;;;;;5056179;28;20685;-73
2021/10/24 03:25:44;;;;;;;14.87;11.90;;;;;;;;;;5054952;28;20227;-73
2021/10/24 03:28:10;;;;;;;17.23;11.73;;;;;;;;;;5056231;28;20218;-73
2021/10/24 03:30:36;;;;;;;17.73;12.83;;;;;;;;;;5053762;28;20234;-73
2021/10/24 03:33:03;;;;;;;17.10;13.03;;;;;;;;;;5053376;28;20207;-73
2021/10/24 03:35:29;;;;;;;21.70;13.73;;;;;;;;;;5056063;28;20679;-73
2021/10/24 03:37:56;;;;;;;17.03;12.33;;;;;;;;;;5055887;28;20297;-73
2021/10/24 03:40:24;;;;;;;17.03;13.27;;;;;;;;;;5054003;28;20265;-73
2021/10/24 03:42:50;;;;;;;15.87;12.63;;;;;;;;;;5054442;28;20214;-73
2021/10/24 03:45:17;;;;;;;16.83;12.90;;;;;;;;;;5053130;28;20626;-73
2021/10/24 03:47:43;;;;;;;17.23;13.57;;;;;;;;;;5054280;28;20210;-71
2021/10/24 03:50:10;;;;;;;17.40;13.30;;;;;;;;;;5056303;28;20222;-71
2021/10/24 03:52:37;;;;;;;20.13;13.90;;;;;;;;;;5054846;28;20227;-71
2021/10/24 03:55:09;;;;;;;18.73;15.37;;;;;;;;;;5055287;28;21301;-71
2021/10/24 03:57:37;;;;;;;16.53;13.37;;;;;;;;;;5054742;28;20258;-71
2021/10/24 04:00:04;;;;;;;17.40;14.03;;;;;;;;;;5055535;28;20697;-71
2021/10/24 04:02:31;;;;;;;17.40;14.07;;;;;;;;;;5056605;28;20209;-71
2021/10/24 04:04:58;;;;;;;18.07;13.70;;;;;;;;;;5056069;28;20341;-71
2021/10/24 04:07:24;;;;;;;20.10;13.93;;;;;;;;;;5055075;28;20214;-71
2021/10/24 04:09:51;;;;;;;17.93;14.50;;;;;;;;;;5056701;28;20232;-71
2021/10/24 04:12:17;;;;;;;19.53;14.33;;;;;;;;;;5052534;28;20246;-71
2021/10/24 04:14:45;;;;;;;20.03;14.77;;;;;;;;;;5053740;28;20242;-71
2021/10/24 04:17:11;;;;;;;20.23;14.53;;;;;;;;;;5053358;28;20219;-71
2021/10/24 04:19:37;;;;;;;18.27;14.47;;;;;;;;;;5055034;28;20230;-71
2021/10/24 04:22:04;;;;;;;17.63;14.47;;;;;;;;;;5053356;28;20215;-71
2021/10/24 04:24:30;;;;;;;18.53;15.40;;;;;;;;;;5053824;28;20230;-71
2021/10/24 04:26:57;;;;;;;18.07;14.87;;;;;;;;;;5051908;28;20211;-71
2021/10/24 04:29:23;;;;;;;18.53;15.53;;;;;;;;;;5051995;28;20214;-71
2021/10/24 04:31:51;;;;;;;21.30;17.63;;;;;;;;;;5054784;28;20491;-76
2021/10/24 04:34:17;;;;;;;20.40;17.47;;;;;;;;;;5052571;28;20245;-76
2021/10/24 04:36:44;;;;;;;26.30;16.80;;;;;;;;;;5054316;28;20225;-76
2021/10/24 04:39:10;;;;;;;19.70;15.90;;;;;;;;;;5052855;28;20227;-76
2021/10/24 04:41:38;;;;;;;20.77;15.50;;;;;;;;;;5054053;28;20210;-76
2021/10/24 04:44:04;;;;;;;19.43;15.97;;;;;;;;;;5053396;28;20253;-76
2021/10/24 04:46:31;;;;;;;20.07;16.93;;;;;;;;;;5054315;28;20574;-76
2021/10/24 04:48:59;;;;;;;25.37;17.67;;;;;;;;;;5053908;28;20255;-76
2021/10/24 04:51:26;;;;;;;20.57;16.37;;;;;;;;;;5052849;28;20234;-76
2021/10/24 04:53:52;;;;;;;20.53;17.10;;;;;;;;;;5052197;28;20275;-76
2021/10/24 04:56:19;;;;;;;21.87;17.87;;;;;;;;;;5051605;28;20210;-76
2021/10/24 04:58:45;;;;;;;20.53;18.23;;;;;;;;;;5056566;28;20211;-76
2021/10/24 05:01:11;;;;;;;22.17;17.63;;;;;;;;;;5057470;28;20654;-76
2021/10/24 05:03:38;;;;;;;23.83;19.07;;;;;;;;;;5058025;28;20226;-76
2021/10/24 05:06:07;;;;;;;22.33;17.50;;;;;;;;;;5056820;28;20234;-76
2021/10/24 05:08:33;;;;;;;23.10;18.50;;;;;;;;;;5056095;28;20230;-76
2021/10/24 05:11:00;;;;;;;23.67;18.57;;;;;;;;;;5057433;28;20282;-76
2021/10/24 05:13:27;;;;;;;20.13;17.87;;;;;;;;;;5057546;28;20209;-76
2021/10/24 05:15:53;;;;;;;23.80;18.07;;;;;;;;;;5057042;28;20231;-76
2021/10/24 05:18:20;;;;;;;22.17;18.60;;;;;;;;;;5057832;28;20222;-76
2021/10/24 05:20:46;;;;;;;23.80;18.30;;;;;;;;;;5058019;28;20230;-76
2021/10/24 05:23:14;;;;;;;21.37;17.83;;;;;;;;;;5056764;28;20234;-76
2021/10/24 05:25:41;;;;;;;20.00;17.40;;;;;;;;;;5058129;28;20210;-76
2021/10/24 05:28:08;;;;;;;20.03;17.10;;;;;;;;;;5058502;28;20210;-76
2021/10/24 05:30:34;;;;;;;20.97;17.57;;;;;;;;;;5055846;28;20209;-76
2021/10/24 05:33:01;;;;;;;19.93;15.47;;;;;;;;;;5056509;28;20226;-76
2021/10/24 05:35:28;;;;;;;21.60;16.97;;;;;;;;;;5057472;28;20298;-76
2021/10/24 05:37:55;;;;;;;20.83;16.47;;;;;;;;;;5057445;28;20206;-76
2021/10/24 05:40:23;;;;;;;20.43;15.60;;;;;;;;;;5057717;28;20211;-76
2021/10/24 05:42:49;;;;;;;18.63;15.57;;;;;;;;;;5056394;28;20590;-76
2021/10/24 05:45:16;;;;;;;19.07;16.87;;;;;;;;;;5056838;28;20217;-76
2021/10/24 05:47:43;;;;;;;17.97;15.30;;;;;;;;;;5057780;28;20218;-76
2021/10/24 05:50:09;;;;;;;19.23;15.53;;;;;;;;;;5057028;28;20583;-76
2021/10/24 05:52:36;;;;;;;17.67;14.73;;;;;;;;;;5053949;28;20352;-76
2021/10/24 05:55:03;;;;;;;18.63;15.50;;;;;;;;;;5056608;28;20230;-76
2021/10/24 05:57:31;;;;;;;17.70;14.83;;;;;;;;;;5056457;28;20644;-76
2021/10/24 05:59:57;;;;;;;17.93;14.43;;;;;;;;;;5058130;28;20781;-76
2021/10/24 06:02:24;;;;;;;19.70;14.30;;;;;;;;;;5056233;28;20206;-76
2021/10/24 06:04:50;;;;;;;16.40;13.20;;;;;;;;;;5057463;28;20312;-76
2021/10/24 06:07:17;;;;;;;17.70;13.83;;;;;;;;;;5053972;28;20211;-77
2021/10/24 06:09:50;;;;;;;18.37;14.07;;;;;;;;;;5054757;28;20324;-76
2021/10/24 06:12:38;;;;;;;16.03;13.00;;;;;;;;;;5053558;28;20317;-76
2021/10/24 06:15:09;;;;;;;16.97;14.33;;;;;;;;;;5052099;28;20685;-76
2021/10/24 06:17:36;;;;;;;14.70;12.90;;;;;;;;;;5054284;28;20241;-76
2021/10/24 06:20:04;;;;;;;15.43;12.43;;;;;;;;;;5056340;28;20234;-76
2021/10/24 06:22:30;;;;;;;14.43;12.77;;;;;;;;;;5055209;28;20592;-76
2021/10/24 06:24:57;;;;;;;16.13;12.73;;;;;;;;;;5054612;28;20222;-76
2021/10/24 06:27:23;;;;;;;18.93;12.53;;;;;;;;;;5056056;28;20210;-76
2021/10/24 06:29:50;;;;;;;13.83;11.97;;;;;;;;;;5050840;28;20240;-76
2021/10/24 06:32:18;;;;;;;14.77;12.03;;;;;;;;;;5053626;28;20778;-76
2021/10/24 06:34:45;;;;;;;13.33;11.53;;;;;;;;;;5053748;28;20227;-76
2021/10/24 06:37:17;;;;;;;18.47;12.47;;;;;;;;;;5053653;28;20223;-76
2021/10/24 06:39:43;;;;;;;13.93;11.33;;;;;;;;;;5054410;28;20278;-76
2021/10/24 06:42:10;;;;;;;15.30;11.13;;;;;;;;;;5052885;28;20217;-76
2021/10/24 06:44:36;;;;;;;13.07;11.67;;;;;;;;;;5053613;28;21191;-76
2021/10/24 06:47:03;;;;;;;15.43;11.43;;;;;;;;;;5054285;28;20265;-76
2021/10/24 06:49:31;;;;;;;16.63;10.37;;;;;;;;;;5054547;28;20285;-77
2021/10/24 06:52:03;;;;;;;12.87;10.43;;;;;;;;;;5053361;28;20237;-77
2021/10/24 06:54:30;;;;;;;12.70;9.90;;;;;;;;;;5055014;28;20237;-77
2021/10/24 06:56:56;;;;;;;11.70;9.80;;;;;;;;;;5051803;28;20209;-76
2021/10/24 06:59:23;;;;;;;12.93;9.90;;;;;;;;;;5052424;28;20220;-76
2021/10/24 07:01:50;;;;;;;14.73;10.80;;;;;;;;;;5052720;28;21076;-76
2021/10/24 07:04:16;;;;;;;14.33;10.40;;;;;;;;;;5051018;28;20678;-78
2021/10/24 07:06:44;;;;;;;12.40;10.77;;;;;;;;;;5052199;28;20632;-77
2021/10/24 07:09:11;;;;;;;11.53;9.90;;;;;;;;;;5053526;28;20237;-77
2021/10/24 07:11:38;;;;;;;11.67;10.47;;;;;;;;;;5051058;28;20205;-77
2021/10/24 07:14:04;;;;;;;13.30;9.87;;;;;;;;;;5052481;28;20271;-77
2021/10/24 07:16:31;;;;;;;11.27;8.77;;;;;;;;;;5054516;28;20218;-77
2021/10/24 07:18:58;;;;;;;10.83;9.03;;;;;;;;;;5053268;28;20285;-77
2021/10/24 07:21:24;;;;;;;10.33;9.20;;;;;;;;;;5050952;28;20214;-77
2021/10/24 07:23:52;;;;;;;11.27;9.03;;;;;;;;;;5052941;28;20223;-77
2021/10/24 07:26:18;;;;;;;12.03;8.67;;;;;;;;;;5053247;28;20209;-77
2021/10/24 07:28:45;;;;;;;13.10;9.00;;;;;;;;;;5053774;28;20218;-77
2021/10/24 07:31:11;;;;;;;12.10;8.87;;;;;;;;;;5052304;28;20210;-77
2021/10/24 07:33:38;;;;;;;9.63;8.17;;;;;;;;;;5050904;28;20231;-77
2021/10/24 07:36:05;;;;;;;9.77;7.80;;;;;;;;;;5052247;28;20301;-77
2021/10/24 07:38:33;;;;;;;12.13;7.37;;;;;;;;;;5052600;28;20229;-77
2021/10/24 07:41:01;;;;;;;12.73;8.50;;;;;;;;;;5052146;28;20210;-77
2021/10/24 07:43:28;;;;;;;11.50;7.63;;;;;;;;;;5051869;28;20206;-77
2021/10/24 07:45:55;;;;;;;9.33;8.27;;;;;;;;;;5052038;28;20220;-77
2021/10/24 07:48:23;;;;;;;9.27;8.23;;;;;;;;;;5051994;28;20609;-77
2021/10/24 07:50:51;;;;;;;9.67;8.23;;;;;;;;;;5051982;28;20224;-77
2021/10/24 07:53:18;;;;;;;7.73;7.03;;;;;;;;;;5051543;28;20238;-77
2021/10/24 07:55:45;;;;;;;11.13;8.47;;;;;;;;;;5052691;28;20290;-76
2021/10/24 07:58:13;;;;;;;9.43;7.90;;;;;;;;;;5053684;28;20672;-77
2021/10/24 08:00:39;;;;;;;9.50;8.00;;;;;;;;;;5050660;28;20213;-76
2021/10/24 08:03:07;;;;;;;9.07;7.47;;;;;;;;;;5052996;28;20259;-76
2021/10/24 08:05:34;;;;;;;13.13;8.47;;;;;;;;;;5052130;28;20235;-76
2021/10/24 08:08:01;;;;;;;8.70;7.53;;;;;;;;;;5052039;28;20262;-76
2021/10/24 08:10:28;;;;;;;8.70;7.07;;;;;;;;;;5051441;28;20203;-76
2021/10/24 08:12:54;;;;;;;9.70;7.33;;;;;;;;;;5053009;28;20222;-77
2021/10/24 08:15:22;;;;;;;9.73;7.70;;;;;;;;;;5050588;28;20732;-76
2021/10/24 08:17:49;;;;;;;10.53;7.90;;;;;;;;;;5052344;28;20214;-76
2021/10/24 08:20:17;;;;;;;8.47;7.00;;;;;;;;;;5054549;28;20232;-77
2021/10/24 08:22:45;;;;;;;9.73;7.10;;;;;;;;;;5052717;28;20242;-76
2021/10/24 08:25:13;;;;;;;11.43;7.20;;;;;;;;;;5051845;28;20788;-76
2021/10/24 08:27:40;;;;;;;8.00;6.90;;;;;;;;;;5051676;28;20241;-76
2021/10/24 08:30:09;;;;;;;11.23;7.73;;;;;;;;;;5051966;28;20210;-76
2021/10/24 08:32:38;;;;;;;9.40;7.13;;;;;;;;;;5054367;28;20227;-76
2021/10/24 08:35:07;;;;;;;7.07;6.33;;;;;;;;;;5056881;28;20226;-76
2021/10/24 08:37:33;;;;;;;8.63;6.53;;;;;;;;;;5057053;28;20677;-76
2021/10/24 08:40:00;;;;;;;7.77;6.53;;;;;;;;;;5057273;28;20239;-76
2021/10/24 08:42:31;;;;;;;8.80;7.27;;;;;;;;;;5056814;28;20266;-76
2021/10/24 08:44:58;;;;;;;8.33;6.57;;;;;;;;;;5055487;28;20594;-76
2021/10/24 08:47:26;;;;;;;8.57;6.60;;;;;;;;;;5056226;28;20214;-76
2021/10/24 08:49:56;;;;;;;8.23;6.23;;;;;;;;;;5058081;28;20240;-76
2021/10/24 08:52:23;;;;;;;10.17;5.67;;;;;;;;;;5057335;28;20242;-76
2021/10/24 08:54:50;;;;;;;10.37;6.20;;;;;;;;;;5056559;28;20311;-76
2021/10/24 08:57:22;;;;;;;8.33;5.80;;;;;;;;;;5055913;28;20200;-76
2021/10/24 08:59:49;;;;;;;8.53;6.97;;;;;;;;;;5053173;28;20238;-76
2021/10/24 09:02:15;;;;;;;6.90;6.17;;;;;;;;;;5055825;28;20205;-76
2021/10/24 09:04:49;;;;;;;8.10;6.00;;;;;;;;;;5056698;28;20228;-76
2021/10/24 09:07:17;;;;;;;7.93;6.30;;;;;;;;;;5055108;28;20299;-76
2021/10/24 09:09:44;;;;;;;6.87;6.10;;;;;;;;;;5054774;28;20236;-76
2021/10/24 09:12:12;;;;;;;8.20;6.10;;;;;;;;;;5053971;28;20268;-76
2021/10/24 09:14:45;;;;;;;6.70;6.00;;;;;;;;;;5056328;28;20240;-75
2021/10/24 09:17:15;;;;;;;7.70;6.47;;;;;;;;;;5054286;28;20608;-75
2021/10/24 09:19:44;;;;;;;9.33;6.30;;;;;;;;;;5054579;28;20233;-75
2021/10/24 09:22:19;;;;;;;9.47;5.50;;;;;;;;;;5054575;28;20608;-74
2021/10/24 09:25:03;;;;;;;7.70;5.50;;;;;;;;;;5055373;28;20226;-74
2021/10/24 09:27:33;;;;;;;12.00;5.60;;;;;;;;;;5056229;28;20302;-74
2021/10/24 09:30:06;;;;;;;7.13;6.03;;;;;;;;;;5055667;28;20214;-73
2021/10/24 09:32:47;;;;;;;7.83;5.73;;;;;;;;;;5054097;28;20230;-73
2021/10/24 09:35:13;;;;;;;8.00;5.47;;;;;;;;;;5055450;28;20261;-73
2021/10/24 09:37:46;;;;;;;9.43;5.40;;;;;;;;;;5056157;28;20214;-73
2021/10/24 09:40:13;;;;;;;6.57;5.20;;;;;;;;;;5054679;28;20701;-73
2021/10/24 09:42:39;;;;;;;7.47;5.60;;;;;;;;;;5054241;28;20580;-73
2021/10/24 09:45:09;;;;;;;8.97;5.37;;;;;;;;;;5053068;28;20222;-73
2021/10/24 09:47:36;;;;;;;7.47;5.47;;;;;;;;;;5054289;28;20265;-73
2021/10/24 09:50:04;;;;;;;7.00;5.70;;;;;;;;;;5054590;28;20269;-73
2021/10/24 09:52:31;;;;;;;6.60;5.13;;;;;;;;;;5055109;28;20203;-73
2021/10/24 09:55:00;;;;;;;5.80;5.20;;;;;;;;;;5055417;28;20651;-73
2021/10/24 09:57:26;;;;;;;6.37;5.13;;;;;;;;;;5054451;28;20214;-73
2021/10/24 09:59:54;;;;;;;6.13;5.53;;;;;;;;;;5054000;28;20260;-73
2021/10/24 10:02:22;;;;;;;8.53;5.60;;;;;;;;;;5053246;28;20214;-73
2021/10/24 10:04:48;;;;;;;5.47;4.70;;;;;;;;;;5054482;28;20257;-73
2021/10/24 10:07:15;;;;;;;5.43;4.90;;;;;;;;;;5051794;28;20559;-73
2021/10/24 10:09:42;;;;;;;8.87;5.10;;;;;;;;;;5052909;28;20625;-73
2021/10/24 10:12:13;;;;;;;7.23;5.10;;;;;;;;;;5054193;28;21011;-73
2021/10/24 10:14:42;;;;;;;7.23;5.50;;;;;;;;;;5053298;28;20238;-73
2021/10/24 10:17:12;;;;;;;9.53;5.60;;;;;;;;;;5052865;28;20585;-73
2021/10/24 10:19:43;;;;;;;7.67;5.90;;;;;;;;;;5054821;28;20222;-73
2021/10/24 10:22:34;;;;;;;6.20;5.43;;;;;;;;;;5052114;28;20198;-73
2021/10/24 10:25:02;;;;;;;7.10;5.50;;;;;;;;;;5032619;28;20739;-73
2021/10/24 10:27:55;;;;;;;6.23;5.10;;;;;;;;;;5055201;28;20215;-74
2021/10/24 10:30:33;;;;;;;8.60;5.37;;;;;;;;;;5053536;28;20213;-73
2021/10/24 10:33:01;;;;;;;6.87;5.57;;;;;;;;;;5052149;28;20752;-73
2021/10/24 10:35:28;;;;;;;7.13;5.17;;;;;;;;;;5051951;28;20225;-73
2021/10/24 10:37:57;;;;;;;11.07;5.23;;;;;;;;;;5053935;28;20211;-73
2021/10/24 10:40:30;;;;;;;7.63;5.07;;;;;;;;;;5051591;28;20711;-73
2021/10/24 10:43:01;;;;;;;5.43;4.37;;;;;;;;;;5051463;28;20627;-74
2021/10/24 10:45:38;;;;;;;7.90;4.60;;;;;;;;;;5055185;28;20332;-73
2021/10/24 10:48:07;;;;;;;8.67;4.33;;;;;;;;;;5051932;28;20203;-73
2021/10/24 10:50:46;;;;;;;9.93;4.80;;;;;;;;;;5053481;28;20717;-73
2021/10/24 10:53:54;;;;;;;6.50;4.77;;;;;;;;;;5044392;28;20227;-73
2021/10/24 10:56:28;;;;;;;8.43;5.63;;;;;;;;;;5043977;28;20296;-73
2021/10/24 10:58:57;;;;;;;10.93;6.33;;;;;;;;;;5052425;28;20702;-73
2021/10/24 11:01:30;;;;;;;11.37;6.07;;;;;;;;;;5051598;28;20250;-73
2021/10/24 11:03:59;;;;;;;7.33;5.67;;;;;;;;;;5053520;28;20234;-73
2021/10/24 11:06:52;;;;;;;8.27;6.27;;;;;;;;;;5052834;28;20281;-73
2021/10/24 11:09:45;;;;;;;9.37;5.77;;;;;;;;;;5051561;28;20234;-73
2021/10/24 11:12:30;;;;;;;11.27;5.73;;;;;;;;;;5052383;28;20240;-73
2021/10/24 11:15:09;;;;;;;8.40;6.13;;;;;;;;;;5053191;28;20262;-73
2021/10/24 11:17:38;;;;;;;8.93;6.43;;;;;;;;;;5054161;28;20219;-73
2021/10/24 11:20:21;;;;;;;7.07;5.07;;;;;;;;;;5054275;28;20246;-73
2021/10/24 11:23:00;;;;;;;6.33;4.90;;;;;;;;;;5052956;28;20872;-74
2021/10/24 11:25:30;;;;;;;7.93;4.83;;;;;;;;;;5052384;28;20264;-73
2021/10/24 11:27:58;;;;;;;7.20;5.30;;;;;;;;;;5052459;28;20219;-74
2021/10/24 11:30:26;;;;;;;6.97;4.70;;;;;;;;;;5050735;28;20218;-73
2021/10/24 11:32:55;;;;;;;5.60;4.83;;;;;;;;;;5051322;28;20237;-73
2021/10/24 11:35:23;;;;;;;6.93;4.70;;;;;;;;;;5052256;28;20231;-73
2021/10/24 11:37:52;;;;;;;7.10;5.00;;;;;;;;;;5052827;28;20208;-73
2021/10/24 11:40:21;;;;;;;9.00;4.97;;;;;;;;;;5053197;28;20228;-73
2021/10/24 11:43:04;;;;;;;6.73;5.27;;;;;;;;;;5051429;28;20271;-73
2021/10/24 11:45:35;;;;;;;8.33;5.27;;;;;;;;;;5050790;28;20650;-73
2021/10/24 11:48:08;;;;;;;6.07;5.40;;;;;;;;;;5053859;28;20215;-73
2021/10/24 11:50:47;;;;;;;8.00;4.97;;;;;;;;;;5052591;28;20614;-73
2021/10/24 11:53:19;;;;;;;6.00;3.80;;;;;;;;;;5052806;28;20788;-73
2021/10/24 11:55:50;;;;;;;4.13;3.10;;;;;;;;;;5052357;28;20217;-73
2021/10/24 11:58:38;;;;;;;6.33;3.23;;;;;;;;;;5053348;28;20211;-73
2021/10/24 12:01:09;;;;;;;4.43;3.20;;;;;;;;;;5052564;28;20204;-73
2021/10/24 12:03:38;;;;;;;6.37;3.63;;;;;;;;;;5052928;28;20237;-73
2021/10/24 12:06:06;;;;;;;7.77;3.27;;;;;;;;;;5052005;28;20237;-73
2021/10/24 12:08:43;;;;;;;6.67;3.77;;;;;;;;;;5054092;28;20223;-72
2021/10/24 12:11:13;;;;;;;10.17;3.73;;;;;;;;;;5053743;28;20207;-72
2021/10/24 12:13:41;;;;;;;6.50;3.57;;;;;;;;;;5053065;28;20234;-73
2021/10/24 12:19:15;;;;;;;4.77;3.60;;;;;;;;;;5061398;27;20567;-73
2021/10/24 12:21:53;;;;;;;5.57;3.57;;;;;;;;;;5050316;28;20299;-73
2021/10/24 12:24:21;;;;;;;5.00;3.13;;;;;;;;;;5051183;28;20298;-70
2021/10/24 12:26:48;;;;;;;6.57;3.57;;;;;;;;;;5048736;28;21136;-71
2021/10/24 12:29:18;;;;;;;4.83;4.13;;;;;;;;;;5049973;28;20230;-71
2021/10/24 12:31:45;;;;;;;6.47;4.10;;;;;;;;;;5049555;28;20290;-71
2021/10/24 12:34:14;;;;;;;4.87;3.57;;;;;;;;;;5050619;28;20233;-71
2021/10/24 12:36:41;;;;;;;5.63;3.43;;;;;;;;;;5049914;28;20273;-73
2021/10/24 12:39:09;;;;;;;5.07;3.70;;;;;;;;;;5049631;28;20276;-71
2021/10/24 12:41:38;;;;;;;4.87;3.63;;;;;;;;;;5049576;28;20219;-71
2021/10/24 12:44:07;;;;;;;3.67;3.33;;;;;;;;;;5050662;28;20294;-71
2021/10/24 12:46:35;;;;;;;5.20;4.13;;;;;;;;;;5049958;28;20217;-71
2021/10/24 12:49:10;;;;;;;6.43;3.90;;;;;;;;;;5049759;28;20234;-71
2021/10/24 12:51:38;;;;;;;6.73;4.30;;;;;;;;;;5050243;28;20241;-70
2021/10/24 12:54:06;;;;;;;6.77;4.50;;;;;;;;;;5050011;28;20226;-71
2021/10/24 12:56:34;;;;;;;6.43;4.40;;;;;;;;;;5049423;28;20222;-74
2021/10/24 12:59:01;;;;;;;7.77;4.83;;;;;;;;;;5049738;28;20710;-71
2021/10/24 13:01:31;;;;;;;6.80;4.50;;;;;;;;;;5048137;28;20214;-71
2021/10/24 13:03:59;;;;;;;9.70;5.10;;;;;;;;;;5050704;28;20222;-73
2021/10/24 13:06:27;;;;;;;7.23;4.53;;;;;;;;;;5049621;28;20230;-73
2021/10/24 13:08:56;;;;;;;6.97;4.60;;;;;;;;;;5048271;28;20227;-71
2021/10/24 13:11:23;;;;;;;6.60;5.20;;;;;;;;;;5049760;28;20219;-71
2021/10/24 13:13:50;;;;;;;7.43;5.03;;;;;;;;;;5049589;28;20677;-71
2021/10/24 13:16:16;;;;;;;6.97;5.17;;;;;;;;;;5048449;28;20211;-72
2021/10/24 13:18:44;;;;;;;6.47;5.13;;;;;;;;;;5046835;28;20866;-72
2021/10/24 13:21:12;;;;;;;6.43;4.83;;;;;;;;;;5047917;28;20943;-72
2021/10/24 13:23:38;;;;;;;5.53;4.53;;;;;;;;;;5046848;28;20231;-72
2021/10/24 13:26:06;;;;;;;5.03;4.40;;;;;;;;;;5048488;28;20221;-72
2021/10/24 13:28:32;;;;;;;6.27;4.60;;;;;;;;;;5043376;28;20648;-72
2021/10/24 13:30:59;;;;;;;7.50;4.70;;;;;;;;;;5034939;28;20214;-72
2021/10/24 13:33:26;;;;;;;25.80;5.77;;;;;;;;;;5032811;28;20319;-72
2021/10/24 13:35:52;;;;;;;8.03;4.83;;;;;;;;;;5035969;28;20269;-72
2021/10/24 13:38:19;;;;;;;7.43;5.47;;;;;;;;;;5033883;28;20227;-72
2021/10/24 13:40:48;;;;;;;5.57;5.07;;;;;;;;;;5034410;28;20668;-71
2021/10/24 13:43:16;;;;;;;12.17;5.37;;;;;;;;;;5034364;28;20303;-72
2021/10/24 13:45:42;;;;;;;5.77;5.17;;;;;;;;;;5035480;28;20689;-72
2021/10/24 13:48:09;;;;;;;6.90;5.60;;;;;;;;;;5032816;28;20702;-71
2021/10/24 13:50:35;;;;;;;6.40;5.73;;;;;;;;;;5032479;28;20286;-72
2021/10/24 13:53:01;;;;;;;7.90;6.13;;;;;;;;;;5032822;28;20210;-71
2021/10/24 13:55:28;;;;;;;6.40;5.67;;;;;;;;;;5033214;28;20545;-72
2021/10/24 13:57:54;;;;;;;9.03;6.20;;;;;;;;;;5033572;28;20308;-71
2021/10/24 14:00:22;;;;;;;6.60;5.13;;;;;;;;;;5032534;28;20215;-71
2021/10/24 14:02:50;;;;;;;7.57;5.83;;;;;;;;;;5034944;28;20215;-71
2021/10/24 14:05:17;;;;;;;8.03;5.37;;;;;;;;;;5031543;28;20246;-71
2021/10/24 14:07:43;;;;;;;8.77;5.80;;;;;;;;;;5033263;28;20264;-71
2021/10/24 14:10:12;;;;;;;6.77;6.03;;;;;;;;;;5032194;28;20355;-71
2021/10/24 14:12:38;;;;;;;8.20;7.13;;;;;;;;;;5033634;28;20207;-71
2021/10/24 14:15:05;;;;;;;7.60;6.23;;;;;;;;;;5031796;28;20223;-71
2021/10/24 14:17:33;;;;;;;7.07;6.10;;;;;;;;;;5032612;28;20242;-71
2021/10/24 14:20:01;;;;;;;9.03;6.07;;;;;;;;;;5034995;28;20223;-72
2021/10/24 14:22:27;;;;;;;6.53;5.87;;;;;;;;;;5033742;28;20214;-71
2021/10/24 14:24:54;;;;;;;6.40;5.80;;;;;;;;;;5030017;28;20235;-71
2021/10/24 14:27:20;;;;;;;7.07;5.80;;;;;;;;;;5032572;28;21094;-71
2021/10/24 14:29:46;;;;;;;6.03;5.30;;;;;;;;;;5032333;28;20622;-71
2021/10/24 14:32:13;;;;;;;7.13;6.23;;;;;;;;;;5031830;28;20223;-70
2021/10/24 14:34:41;;;;;;;7.00;6.13;;;;;;;;;;5031657;28;20618;-71
2021/10/24 14:37:08;;;;;;;8.53;6.30;;;;;;;;;;5031260;28;20646;-71
2021/10/24 14:39:34;;;;;;;9.60;6.17;;;;;;;;;;5032977;28;20235;-71
2021/10/24 14:42:01;;;;;;;6.83;5.90;;;;;;;;;;5030514;28;20266;-71